sensor_id;sensor_type;location;lat;lon;timestamp;temperature;humidity
947;DHT22;460;48.734;9.152;2024-02-04T00:04:51;7.40;99.90
947;DHT22;460;48.734;9.152;2024-02-04T00:09:45;7.80;99.90
947;DHT22;460;48.734;9.152;2024-02-04T00:12:12;7.80;99.90
947;DHT22;460;48.734;9.152;2024-02-04T00:14:39;7.30;99.90
947;DHT22;460;48.734;9.152;2024-02-04T00:17:06;7.30;99.90
947;DHT22;460;48.734;9.152;2024-02-04T00:19:33;7.30;99.90
947;DHT22;460;48.734;9.152;2024-02-04T00:22:01;7.60;99.90
947;DHT22;460;48.734;9.152;2024-02-04T00:24:28;8.00;99.90
947;DHT22;460;48.734;9.152;2024-02-04T00:26:54;7.90;99.90
947;DHT22;460;48.734;9.152;2024-02-04T00:29:21;7.40;99.90
947;DHT22;460;48.734;9.152;2024-02-04T00:31:48;7.20;99.90
947;DHT22;460;48.734;9.152;2024-02-04T00:34:15;7.40;99.90
947;DHT22;460;48.734;9.152;2024-02-04T00:36:41;7.20;99.90
947;DHT22;460;48.734;9.152;2024-02-04T00:39:10;7.20;99.90
947;DHT22;460;48.734;9.152;2024-02-04T00:41:37;7.20;99.90
947;DHT22;460;48.734;9.152;2024-02-04T00:44:03;7.70;99.90
947;DHT22;460;48.734;9.152;2024-02-04T00:46:30;7.10;99.90
947;DHT22;460;48.734;9.152;2024-02-04T00:48:57;7.20;99.90
947;DHT22;460;48.734;9.152;2024-02-04T00:51:24;7.40;99.90
947;DHT22;460;48.734;9.152;2024-02-04T00:53:51;7.00;99.90
947;DHT22;460;48.734;9.152;2024-02-04T00:56:19;7.00;99.90
947;DHT22;460;48.734;9.152;2024-02-04T00:58:46;6.80;99.90
947;DHT22;460;48.734;9.152;2024-02-04T01:01:13;7.10;99.90
947;DHT22;460;48.734;9.152;2024-02-04T01:03:40;6.80;99.90
947;DHT22;460;48.734;9.152;2024-02-04T01:06:06;6.90;99.90
947;DHT22;460;48.734;9.152;2024-02-04T01:08:33;6.90;99.90
947;DHT22;460;48.734;9.152;2024-02-04T01:11:03;7.10;99.90
947;DHT22;460;48.734;9.152;2024-02-04T01:13:31;6.80;99.90
947;DHT22;460;48.734;9.152;2024-02-04T01:15:58;6.70;99.90
947;DHT22;460;48.734;9.152;2024-02-04T01:18:25;6.80;99.90
947;DHT22;460;48.734;9.152;2024-02-04T01:20:52;6.80;99.90
947;DHT22;460;48.734;9.152;2024-02-04T01:23:18;6.80;99.90
947;DHT22;460;48.734;9.152;2024-02-04T01:25:45;6.80;99.90
947;DHT22;460;48.734;9.152;2024-02-04T01:28:12;6.80;99.90
947;DHT22;460;48.734;9.152;2024-02-04T01:30:40;6.80;99.90
947;DHT22;460;48.734;9.152;2024-02-04T01:33:07;6.70;99.90
947;DHT22;460;48.734;9.152;2024-02-04T01:35:34;6.80;99.90
947;DHT22;460;48.734;9.152;2024-02-04T01:38:01;6.50;99.90
947;DHT22;460;48.734;9.152;2024-02-04T01:40:27;6.50;99.90
947;DHT22;460;48.734;9.152;2024-02-04T01:42:54;6.50;99.90
947;DHT22;460;48.734;9.152;2024-02-04T01:45:21;6.60;99.90
947;DHT22;460;48.734;9.152;2024-02-04T01:47:49;6.60;99.90
947;DHT22;460;48.734;9.152;2024-02-04T01:50:17;6.90;99.90
947;DHT22;460;48.734;9.152;2024-02-04T01:52:44;6.90;99.90
947;DHT22;460;48.734;9.152;2024-02-04T01:55:12;6.60;99.90
947;DHT22;460;48.734;9.152;2024-02-04T01:57:40;6.60;99.90
947;DHT22;460;48.734;9.152;2024-02-04T02:00:08;5.80;99.90
947;DHT22;460;48.734;9.152;2024-02-04T02:02:39;6.50;99.90
947;DHT22;460;48.734;9.152;2024-02-04T02:05:08;6.60;99.90
947;DHT22;460;48.734;9.152;2024-02-04T02:07:35;6.60;99.90
947;DHT22;460;48.734;9.152;2024-02-04T02:12:35;6.60;99.90
947;DHT22;460;48.734;9.152;2024-02-04T02:15:11;6.70;99.90
947;DHT22;460;48.734;9.152;2024-02-04T02:17:47;7.40;99.90
947;DHT22;460;48.734;9.152;2024-02-04T02:20:21;7.00;99.90
947;DHT22;460;48.734;9.152;2024-02-04T02:22:57;6.70;99.90
947;DHT22;460;48.734;9.152;2024-02-04T02:25:30;6.70;99.90
947;DHT22;460;48.734;9.152;2024-02-04T02:27:58;6.60;99.90
947;DHT22;460;48.734;9.152;2024-02-04T02:30:25;7.00;99.90
947;DHT22;460;48.734;9.152;2024-02-04T02:32:53;6.60;99.90
947;DHT22;460;48.734;9.152;2024-02-04T02:35:21;6.70;99.90
947;DHT22;460;48.734;9.152;2024-02-04T02:37:59;6.70;99.90
947;DHT22;460;48.734;9.152;2024-02-04T02:40:38;6.70;99.90
947;DHT22;460;48.734;9.152;2024-02-04T02:43:09;6.50;99.90
947;DHT22;460;48.734;9.152;2024-02-04T02:45:39;6.80;99.90
947;DHT22;460;48.734;9.152;2024-02-04T02:48:07;7.10;99.90
947;DHT22;460;48.734;9.152;2024-02-04T02:50:35;6.80;99.90
947;DHT22;460;48.734;9.152;2024-02-04T02:53:03;6.70;99.90
947;DHT22;460;48.734;9.152;2024-02-04T02:55:32;6.80;99.90
947;DHT22;460;48.734;9.152;2024-02-04T02:57:59;6.70;99.90
947;DHT22;460;48.734;9.152;2024-02-04T03:00:26;6.80;99.90
947;DHT22;460;48.734;9.152;2024-02-04T03:02:54;6.70;99.90
947;DHT22;460;48.734;9.152;2024-02-04T03:05:23;6.50;99.90
947;DHT22;460;48.734;9.152;2024-02-04T03:07:51;7.50;99.90
947;DHT22;460;48.734;9.152;2024-02-04T03:10:18;6.40;99.90
947;DHT22;460;48.734;9.152;2024-02-04T03:12:46;6.80;99.90
947;DHT22;460;48.734;9.152;2024-02-04T03:15:14;6.80;99.90
947;DHT22;460;48.734;9.152;2024-02-04T03:17:42;6.90;99.90
947;DHT22;460;48.734;9.152;2024-02-04T03:20:10;6.90;99.90
947;DHT22;460;48.734;9.152;2024-02-04T03:22:38;6.90;99.90
947;DHT22;460;48.734;9.152;2024-02-04T03:25:06;6.90;99.90
947;DHT22;460;48.734;9.152;2024-02-04T03:30:04;6.90;99.90
947;DHT22;460;48.734;9.152;2024-02-04T03:32:32;7.00;99.90
947;DHT22;460;48.734;9.152;2024-02-04T03:35:00;7.00;99.90
947;DHT22;460;48.734;9.152;2024-02-04T03:37:29;7.90;99.90
947;DHT22;460;48.734;9.152;2024-02-04T03:39:57;6.60;99.90
947;DHT22;460;48.734;9.152;2024-02-04T03:42:25;7.20;99.90
947;DHT22;460;48.734;9.152;2024-02-04T03:44:51;6.90;99.90
947;DHT22;460;48.734;9.152;2024-02-04T03:47:21;6.50;99.90
947;DHT22;460;48.734;9.152;2024-02-04T03:49:48;7.00;99.90
947;DHT22;460;48.734;9.152;2024-02-04T03:52:15;6.90;99.90
947;DHT22;460;48.734;9.152;2024-02-04T03:54:42;7.30;99.90
947;DHT22;460;48.734;9.152;2024-02-04T03:57:08;7.00;99.90
947;DHT22;460;48.734;9.152;2024-02-04T03:59:35;7.10;99.90
947;DHT22;460;48.734;9.152;2024-02-04T04:02:02;7.10;99.90
947;DHT22;460;48.734;9.152;2024-02-04T04:04:30;7.20;99.90
947;DHT22;460;48.734;9.152;2024-02-04T04:06:57;7.00;99.90
947;DHT22;460;48.734;9.152;2024-02-04T04:09:24;7.10;99.90
947;DHT22;460;48.734;9.152;2024-02-04T04:11:51;7.70;99.90
947;DHT22;460;48.734;9.152;2024-02-04T04:14:17;7.20;99.90
947;DHT22;460;48.734;9.152;2024-02-04T04:16:44;7.10;99.90
947;DHT22;460;48.734;9.152;2024-02-04T04:19:11;7.00;99.90
947;DHT22;460;48.734;9.152;2024-02-04T04:21:39;7.00;99.90
947;DHT22;460;48.734;9.152;2024-02-04T04:24:06;6.90;99.90
947;DHT22;460;48.734;9.152;2024-02-04T04:26:33;7.00;99.90
947;DHT22;460;48.734;9.152;2024-02-04T04:29:00;6.60;99.90
947;DHT22;460;48.734;9.152;2024-02-04T04:31:27;6.60;99.90
947;DHT22;460;48.734;9.152;2024-02-04T04:33:54;7.20;99.90
947;DHT22;460;48.734;9.152;2024-02-04T04:36:21;7.10;99.90
947;DHT22;460;48.734;9.152;2024-02-04T04:38:49;7.10;99.90
947;DHT22;460;48.734;9.152;2024-02-04T04:41:16;7.00;99.90
947;DHT22;460;48.734;9.152;2024-02-04T04:43:42;6.60;99.90
947;DHT22;460;48.734;9.152;2024-02-04T04:48:35;6.90;99.90
947;DHT22;460;48.734;9.152;2024-02-04T04:51:02;6.90;99.90
947;DHT22;460;48.734;9.152;2024-02-04T04:53:29;6.90;99.90
947;DHT22;460;48.734;9.152;2024-02-04T04:55:57;7.00;99.90
947;DHT22;460;48.734;9.152;2024-02-04T04:58:24;7.20;99.90
947;DHT22;460;48.734;9.152;2024-02-04T05:00:51;6.90;99.90
947;DHT22;460;48.734;9.152;2024-02-04T05:03:18;6.90;99.90
947;DHT22;460;48.734;9.152;2024-02-04T05:05:44;7.30;99.90
947;DHT22;460;48.734;9.152;2024-02-04T05:08:12;7.00;99.90
947;DHT22;460;48.734;9.152;2024-02-04T05:10:39;7.10;99.90
947;DHT22;460;48.734;9.152;2024-02-04T05:13:07;6.90;99.90
947;DHT22;460;48.734;9.152;2024-02-04T05:15:34;6.90;99.90
947;DHT22;460;48.734;9.152;2024-02-04T05:18:01;6.90;99.90
947;DHT22;460;48.734;9.152;2024-02-04T05:20:28;7.40;99.90
947;DHT22;460;48.734;9.152;2024-02-04T05:22:54;6.70;99.90
947;DHT22;460;48.734;9.152;2024-02-04T05:25:22;6.80;99.90
947;DHT22;460;48.734;9.152;2024-02-04T05:27:50;6.70;99.90
947;DHT22;460;48.734;9.152;2024-02-04T05:30:19;7.40;99.90
947;DHT22;460;48.734;9.152;2024-02-04T05:32:45;6.70;99.90
947;DHT22;460;48.734;9.152;2024-02-04T05:35:12;6.80;99.90
947;DHT22;460;48.734;9.152;2024-02-04T05:37:39;6.90;99.90
947;DHT22;460;48.734;9.152;2024-02-04T05:40:07;7.10;99.90
947;DHT22;460;48.734;9.152;2024-02-04T05:42:34;6.80;99.90
947;DHT22;460;48.734;9.152;2024-02-04T05:45:02;6.90;99.90
947;DHT22;460;48.734;9.152;2024-02-04T05:47:32;7.00;99.90
947;DHT22;460;48.734;9.152;2024-02-04T05:49:59;7.00;99.90
947;DHT22;460;48.734;9.152;2024-02-04T05:52:25;7.00;99.90
947;DHT22;460;48.734;9.152;2024-02-04T05:54:52;6.90;99.90
947;DHT22;460;48.734;9.152;2024-02-04T05:57:19;7.60;99.90
947;DHT22;460;48.734;9.152;2024-02-04T05:59:46;6.60;99.90
947;DHT22;460;48.734;9.152;2024-02-04T06:02:13;6.80;99.90
947;DHT22;460;48.734;9.152;2024-02-04T06:04:42;6.90;99.90
947;DHT22;460;48.734;9.152;2024-02-04T06:07:08;7.00;99.90
947;DHT22;460;48.734;9.152;2024-02-04T06:09:35;6.90;99.90
947;DHT22;460;48.734;9.152;2024-02-04T06:12:02;6.40;99.90
947;DHT22;460;48.734;9.152;2024-02-04T06:14:33;6.80;99.90
947;DHT22;460;48.734;9.152;2024-02-04T06:17:00;7.20;99.90
947;DHT22;460;48.734;9.152;2024-02-04T06:19:26;6.80;99.90
947;DHT22;460;48.734;9.152;2024-02-04T06:21:54;7.30;99.90
947;DHT22;460;48.734;9.152;2024-02-04T06:24:21;6.70;99.90
947;DHT22;460;48.734;9.152;2024-02-04T06:26:48;6.40;99.90
947;DHT22;460;48.734;9.152;2024-02-04T06:29:15;6.40;99.90
947;DHT22;460;48.734;9.152;2024-02-04T06:31:44;6.70;99.90
947;DHT22;460;48.734;9.152;2024-02-04T06:34:11;7.20;99.90
947;DHT22;460;48.734;9.152;2024-02-04T06:36:37;7.40;99.90
947;DHT22;460;48.734;9.152;2024-02-04T06:39:06;6.70;99.90
947;DHT22;460;48.734;9.152;2024-02-04T06:41:34;6.70;99.90
947;DHT22;460;48.734;9.152;2024-02-04T06:44:00;7.00;99.90
947;DHT22;460;48.734;9.152;2024-02-04T06:46:27;7.20;99.90
947;DHT22;460;48.734;9.152;2024-02-04T06:48:54;6.60;99.90
947;DHT22;460;48.734;9.152;2024-02-04T06:51:21;6.40;99.90
947;DHT22;460;48.734;9.152;2024-02-04T06:53:48;7.00;99.90
947;DHT22;460;48.734;9.152;2024-02-04T06:56:16;6.70;99.90
947;DHT22;460;48.734;9.152;2024-02-04T06:58:43;6.50;99.90
947;DHT22;460;48.734;9.152;2024-02-04T07:01:12;6.70;99.90
947;DHT22;460;48.734;9.152;2024-02-04T07:03:38;6.70;99.90
947;DHT22;460;48.734;9.152;2024-02-04T07:06:06;6.90;99.90
947;DHT22;460;48.734;9.152;2024-02-04T07:08:32;6.80;99.90
947;DHT22;460;48.734;9.152;2024-02-04T07:10:59;7.30;99.90
947;DHT22;460;48.734;9.152;2024-02-04T07:13:27;6.50;99.90
947;DHT22;460;48.734;9.152;2024-02-04T07:15:54;7.60;99.90
947;DHT22;460;48.734;9.152;2024-02-04T07:18:21;6.80;99.90
947;DHT22;460;48.734;9.152;2024-02-04T07:20:48;9.50;99.90
947;DHT22;460;48.734;9.152;2024-02-04T07:23:15;6.80;99.90
947;DHT22;460;48.734;9.152;2024-02-04T07:25:42;6.80;99.90
947;DHT22;460;48.734;9.152;2024-02-04T07:28:09;6.70;99.90
947;DHT22;460;48.734;9.152;2024-02-04T07:30:37;7.30;99.90
947;DHT22;460;48.734;9.152;2024-02-04T07:33:04;6.70;99.90
947;DHT22;460;48.734;9.152;2024-02-04T07:35:31;7.50;99.90
947;DHT22;460;48.734;9.152;2024-02-04T07:37:58;6.80;99.90
947;DHT22;460;48.734;9.152;2024-02-04T07:40:25;7.00;99.90
947;DHT22;460;48.734;9.152;2024-02-04T07:42:52;6.80;99.90
947;DHT22;460;48.734;9.152;2024-02-04T07:45:19;6.90;99.90
947;DHT22;460;48.734;9.152;2024-02-04T07:47:47;6.90;99.90
947;DHT22;460;48.734;9.152;2024-02-04T07:50:14;7.20;99.90
947;DHT22;460;48.734;9.152;2024-02-04T07:52:41;7.00;99.90
947;DHT22;460;48.734;9.152;2024-02-04T07:55:08;7.40;99.90
947;DHT22;460;48.734;9.152;2024-02-04T07:57:35;7.00;99.90
947;DHT22;460;48.734;9.152;2024-02-04T08:02:32;7.00;99.90
947;DHT22;460;48.734;9.152;2024-02-04T08:05:00;6.90;99.90
947;DHT22;460;48.734;9.152;2024-02-04T08:07:27;7.00;99.90
947;DHT22;460;48.734;9.152;2024-02-04T08:09:53;7.10;99.90
947;DHT22;460;48.734;9.152;2024-02-04T08:12:21;7.20;99.90
947;DHT22;460;48.734;9.152;2024-02-04T08:14:48;7.20;99.90
947;DHT22;460;48.734;9.152;2024-02-04T08:17:15;7.20;99.90
947;DHT22;460;48.734;9.152;2024-02-04T08:19:42;7.20;99.90
947;DHT22;460;48.734;9.152;2024-02-04T08:22:10;7.20;99.90
947;DHT22;460;48.734;9.152;2024-02-04T08:24:37;7.30;99.90
947;DHT22;460;48.734;9.152;2024-02-04T08:27:04;7.20;99.90
947;DHT22;460;48.734;9.152;2024-02-04T08:29:31;7.20;99.90
947;DHT22;460;48.734;9.152;2024-02-04T08:31:57;7.30;99.90
947;DHT22;460;48.734;9.152;2024-02-04T08:34:24;8.10;99.90
947;DHT22;460;48.734;9.152;2024-02-04T08:36:51;7.40;99.90
947;DHT22;460;48.734;9.152;2024-02-04T08:39:19;7.50;99.90
947;DHT22;460;48.734;9.152;2024-02-04T08:41:46;7.50;99.90
947;DHT22;460;48.734;9.152;2024-02-04T08:44:13;7.60;99.90
947;DHT22;460;48.734;9.152;2024-02-04T08:46:40;7.70;99.90
947;DHT22;460;48.734;9.152;2024-02-04T08:49:06;7.70;99.90
947;DHT22;460;48.734;9.152;2024-02-04T08:51:33;7.70;99.90
947;DHT22;460;48.734;9.152;2024-02-04T08:54:00;7.80;99.90
947;DHT22;460;48.734;9.152;2024-02-04T08:56:28;7.90;99.90
947;DHT22;460;48.734;9.152;2024-02-04T08:58:55;7.80;99.90
947;DHT22;460;48.734;9.152;2024-02-04T09:01:22;7.90;99.90
947;DHT22;460;48.734;9.152;2024-02-04T09:03:48;8.00;99.90
947;DHT22;460;48.734;9.152;2024-02-04T09:06:15;7.80;99.90
947;DHT22;460;48.734;9.152;2024-02-04T09:08:42;8.00;99.90
947;DHT22;460;48.734;9.152;2024-02-04T09:11:09;8.00;99.90
947;DHT22;460;48.734;9.152;2024-02-04T09:13:37;8.00;99.90
947;DHT22;460;48.734;9.152;2024-02-04T09:16:04;8.00;99.90
947;DHT22;460;48.734;9.152;2024-02-04T09:18:31;8.10;99.90
947;DHT22;460;48.734;9.152;2024-02-04T09:20:58;8.10;99.90
947;DHT22;460;48.734;9.152;2024-02-04T09:23:24;8.20;99.90
947;DHT22;460;48.734;9.152;2024-02-04T09:25:51;8.30;99.90
947;DHT22;460;48.734;9.152;2024-02-04T09:28:18;8.10;99.90
947;DHT22;460;48.734;9.152;2024-02-04T09:30:46;8.00;99.90
947;DHT22;460;48.734;9.152;2024-02-04T09:33:13;8.10;99.90
947;DHT22;460;48.734;9.152;2024-02-04T09:38:07;8.00;99.90
947;DHT22;460;48.734;9.152;2024-02-04T09:40:34;8.10;99.90
947;DHT22;460;48.734;9.152;2024-02-04T09:43:01;8.00;99.90
947;DHT22;460;48.734;9.152;2024-02-04T09:45:28;8.10;99.90
947;DHT22;460;48.734;9.152;2024-02-04T09:47:58;8.20;99.90
947;DHT22;460;48.734;9.152;2024-02-04T09:50:26;8.30;99.90
947;DHT22;460;48.734;9.152;2024-02-04T09:52:58;8.50;99.90
947;DHT22;460;48.734;9.152;2024-02-04T09:55:25;8.40;99.90
947;DHT22;460;48.734;9.152;2024-02-04T09:57:53;8.50;99.90
947;DHT22;460;48.734;9.152;2024-02-04T10:00:20;8.70;99.90
947;DHT22;460;48.734;9.152;2024-02-04T10:02:48;8.90;99.90
947;DHT22;460;48.734;9.152;2024-02-04T10:05:16;9.20;99.90
947;DHT22;460;48.734;9.152;2024-02-04T10:07:43;8.90;99.90
947;DHT22;460;48.734;9.152;2024-02-04T10:10:11;9.10;99.90
947;DHT22;460;48.734;9.152;2024-02-04T10:12:38;9.10;99.90
947;DHT22;460;48.734;9.152;2024-02-04T10:15:07;9.20;99.90
947;DHT22;460;48.734;9.152;2024-02-04T10:17:33;9.40;99.90
947;DHT22;460;48.734;9.152;2024-02-04T10:20:00;9.50;99.90
947;DHT22;460;48.734;9.152;2024-02-04T10:25:05;9.80;99.90
947;DHT22;460;48.734;9.152;2024-02-04T10:27:32;10.40;99.90
947;DHT22;460;48.734;9.152;2024-02-04T10:29:59;10.00;98.40
947;DHT22;460;48.734;9.152;2024-02-04T10:32:26;10.60;99.90
947;DHT22;460;48.734;9.152;2024-02-04T10:34:53;10.40;97.90
947;DHT22;460;48.734;9.152;2024-02-04T10:37:20;10.40;99.90
947;DHT22;460;48.734;9.152;2024-02-04T10:39:48;10.50;97.60
947;DHT22;460;48.734;9.152;2024-02-04T10:42:15;10.30;99.90
947;DHT22;460;48.734;9.152;2024-02-04T10:44:45;10.30;99.90
947;DHT22;460;48.734;9.152;2024-02-04T10:47:17;10.30;99.90
947;DHT22;460;48.734;9.152;2024-02-04T10:49:50;10.40;97.70
947;DHT22;460;48.734;9.152;2024-02-04T10:52:18;10.60;99.90
947;DHT22;460;48.734;9.152;2024-02-04T10:54:47;10.40;99.90
947;DHT22;460;48.734;9.152;2024-02-04T10:57:19;10.60;99.90
947;DHT22;460;48.734;9.152;2024-02-04T10:59:47;10.40;99.90
947;DHT22;460;48.734;9.152;2024-02-04T11:02:15;10.20;99.90
947;DHT22;460;48.734;9.152;2024-02-04T11:04:42;9.50;99.90
947;DHT22;460;48.734;9.152;2024-02-04T11:07:10;9.60;99.90
947;DHT22;460;48.734;9.152;2024-02-04T11:09:39;9.70;99.90
947;DHT22;460;48.734;9.152;2024-02-04T11:12:11;10.30;99.90
947;DHT22;460;48.734;9.152;2024-02-04T11:14:39;10.10;98.10
947;DHT22;460;48.734;9.152;2024-02-04T11:17:21;10.40;99.90
947;DHT22;460;48.734;9.152;2024-02-04T11:20:01;10.00;99.90
947;DHT22;460;48.734;9.152;2024-02-04T11:23:04;10.30;99.90
947;DHT22;460;48.734;9.152;2024-02-04T11:25:43;10.60;99.90
947;DHT22;460;48.734;9.152;2024-02-04T11:28:12;10.60;99.90
947;DHT22;460;48.734;9.152;2024-02-04T11:30:39;11.40;99.90
947;DHT22;460;48.734;9.152;2024-02-04T11:33:06;10.80;99.90
947;DHT22;460;48.734;9.152;2024-02-04T11:35:33;10.80;99.90
947;DHT22;460;48.734;9.152;2024-02-04T11:38:01;11.00;99.90
947;DHT22;460;48.734;9.152;2024-02-04T11:40:30;11.40;99.90
947;DHT22;460;48.734;9.152;2024-02-04T11:43:10;11.50;99.90
947;DHT22;460;48.734;9.152;2024-02-04T11:45:39;10.80;99.90
947;DHT22;460;48.734;9.152;2024-02-04T11:48:07;11.20;99.90
947;DHT22;460;48.734;9.152;2024-02-04T11:50:35;11.50;99.90
947;DHT22;460;48.734;9.152;2024-02-04T11:53:05;11.30;96.80
947;DHT22;460;48.734;9.152;2024-02-04T12:00:26;11.60;99.90
947;DHT22;460;48.734;9.152;2024-02-04T12:03:01;11.60;96.10
947;DHT22;460;48.734;9.152;2024-02-04T12:05:30;11.70;99.30
947;DHT22;460;48.734;9.152;2024-02-04T12:10:26;11.20;97.40
947;DHT22;460;48.734;9.152;2024-02-04T12:12:53;11.30;99.90
947;DHT22;460;48.734;9.152;2024-02-04T12:17:47;11.30;99.90
947;DHT22;460;48.734;9.152;2024-02-04T12:20:16;11.20;96.40
947;DHT22;460;48.734;9.152;2024-02-04T12:22:43;11.10;99.90
947;DHT22;460;48.734;9.152;2024-02-04T12:25:10;11.20;99.90
947;DHT22;460;48.734;9.152;2024-02-04T12:30:06;10.70;99.90
947;DHT22;460;48.734;9.152;2024-02-04T12:32:33;10.60;99.90
947;DHT22;460;48.734;9.152;2024-02-04T12:35:00;10.60;99.90
947;DHT22;460;48.734;9.152;2024-02-04T12:37:29;10.50;99.90
947;DHT22;460;48.734;9.152;2024-02-04T12:42:24;10.70;99.90
947;DHT22;460;48.734;9.152;2024-02-04T12:44:51;10.50;99.90
947;DHT22;460;48.734;9.152;2024-02-04T12:47:19;10.30;99.90
947;DHT22;460;48.734;9.152;2024-02-04T12:52:13;10.60;99.90
947;DHT22;460;48.734;9.152;2024-02-04T12:54:42;10.80;99.90
947;DHT22;460;48.734;9.152;2024-02-04T12:57:09;10.60;99.90
947;DHT22;460;48.734;9.152;2024-02-04T12:59:37;11.00;99.90
947;DHT22;460;48.734;9.152;2024-02-04T13:02:07;11.10;99.90
947;DHT22;460;48.734;9.152;2024-02-04T13:04:34;11.00;99.90
947;DHT22;460;48.734;9.152;2024-02-04T13:07:01;11.10;96.80
947;DHT22;460;48.734;9.152;2024-02-04T13:12:04;11.40;96.90
947;DHT22;460;48.734;9.152;2024-02-04T13:14:33;11.30;99.90
947;DHT22;460;48.734;9.152;2024-02-04T13:17:00;11.30;99.90
947;DHT22;460;48.734;9.152;2024-02-04T13:19:32;10.90;99.90
947;DHT22;460;48.734;9.152;2024-02-04T13:21:59;11.20;99.90
947;DHT22;460;48.734;9.152;2024-02-04T13:24:26;11.30;99.90
947;DHT22;460;48.734;9.152;2024-02-04T13:26:53;11.70;99.90
947;DHT22;460;48.734;9.152;2024-02-04T13:29:21;11.20;99.90
947;DHT22;460;48.734;9.152;2024-02-04T13:34:15;11.10;99.90
947;DHT22;460;48.734;9.152;2024-02-04T13:36:42;11.10;96.80
947;DHT22;460;48.734;9.152;2024-02-04T13:39:09;10.80;99.90
947;DHT22;460;48.734;9.152;2024-02-04T13:41:38;10.80;99.90
947;DHT22;460;48.734;9.152;2024-02-04T13:46:33;10.60;97.40
947;DHT22;460;48.734;9.152;2024-02-04T13:49:00;10.60;99.30
947;DHT22;460;48.734;9.152;2024-02-04T13:53:54;10.70;99.90
947;DHT22;460;48.734;9.152;2024-02-04T13:56:21;10.90;99.90
947;DHT22;460;48.734;9.152;2024-02-04T13:58:48;11.00;99.90
947;DHT22;460;48.734;9.152;2024-02-04T14:03:45;10.80;99.90
947;DHT22;460;48.734;9.152;2024-02-04T14:06:11;10.70;98.40
947;DHT22;460;48.734;9.152;2024-02-04T14:08:39;10.90;99.90
947;DHT22;460;48.734;9.152;2024-02-04T14:11:05;10.90;99.90
947;DHT22;460;48.734;9.152;2024-02-04T14:16:00;10.50;99.90
947;DHT22;460;48.734;9.152;2024-02-04T14:18:26;10.70;99.90
947;DHT22;460;48.734;9.152;2024-02-04T14:20:55;10.60;99.90
947;DHT22;460;48.734;9.152;2024-02-04T14:33:10;10.40;99.90
947;DHT22;460;48.734;9.152;2024-02-04T14:35:37;10.50;99.90
947;DHT22;460;48.734;9.152;2024-02-04T14:38:05;10.30;99.90
947;DHT22;460;48.734;9.152;2024-02-04T14:40:32;10.20;99.90
947;DHT22;460;48.734;9.152;2024-02-04T14:45:27;9.90;99.90
947;DHT22;460;48.734;9.152;2024-02-04T14:47:54;10.00;99.90
947;DHT22;460;48.734;9.152;2024-02-04T14:50:21;9.80;99.90
947;DHT22;460;48.734;9.152;2024-02-04T14:52:48;10.30;99.90
947;DHT22;460;48.734;9.152;2024-02-04T14:55:16;9.70;99.90
947;DHT22;460;48.734;9.152;2024-02-04T14:57:42;10.10;99.90
947;DHT22;460;48.734;9.152;2024-02-04T15:00:10;9.80;99.90
947;DHT22;460;48.734;9.152;2024-02-04T15:05:05;9.50;99.90
947;DHT22;460;48.734;9.152;2024-02-04T15:07:33;9.90;99.90
947;DHT22;460;48.734;9.152;2024-02-04T15:09:59;10.00;99.90
947;DHT22;460;48.734;9.152;2024-02-04T15:12:28;9.90;99.90
947;DHT22;460;48.734;9.152;2024-02-04T15:14:58;10.00;99.90
947;DHT22;460;48.734;9.152;2024-02-04T15:17:26;9.80;99.90
947;DHT22;460;48.734;9.152;2024-02-04T15:19:53;9.80;99.90
947;DHT22;460;48.734;9.152;2024-02-04T15:22:21;9.70;99.90
947;DHT22;460;48.734;9.152;2024-02-04T15:24:48;9.90;99.90
947;DHT22;460;48.734;9.152;2024-02-04T15:27:16;9.80;99.90
947;DHT22;460;48.734;9.152;2024-02-04T15:29:47;9.70;99.00
947;DHT22;460;48.734;9.152;2024-02-04T15:32:14;9.70;99.90
947;DHT22;460;48.734;9.152;2024-02-04T15:34:42;9.70;99.90
947;DHT22;460;48.734;9.152;2024-02-04T15:37:10;9.60;99.90
947;DHT22;460;48.734;9.152;2024-02-04T15:39:36;9.50;99.90
947;DHT22;460;48.734;9.152;2024-02-04T15:42:04;9.40;99.90
947;DHT22;460;48.734;9.152;2024-02-04T15:47:00;9.50;99.90
947;DHT22;460;48.734;9.152;2024-02-04T15:49:28;9.40;99.90
947;DHT22;460;48.734;9.152;2024-02-04T15:51:55;9.40;99.90
947;DHT22;460;48.734;9.152;2024-02-04T15:54:23;10.00;99.90
947;DHT22;460;48.734;9.152;2024-02-04T15:56:55;9.30;99.60
947;DHT22;460;48.734;9.152;2024-02-04T15:59:27;9.30;99.90
947;DHT22;460;48.734;9.152;2024-02-04T16:01:58;9.10;99.90
947;DHT22;460;48.734;9.152;2024-02-04T16:04:26;9.20;99.90
947;DHT22;460;48.734;9.152;2024-02-04T16:06:54;9.00;99.90
947;DHT22;460;48.734;9.152;2024-02-04T16:09:21;8.90;99.90
947;DHT22;460;48.734;9.152;2024-02-04T16:11:52;8.80;99.90
947;DHT22;460;48.734;9.152;2024-02-04T16:16:59;9.00;99.90
947;DHT22;460;48.734;9.152;2024-02-04T16:19:30;8.90;99.90
947;DHT22;460;48.734;9.152;2024-02-04T16:24:24;8.60;99.90
947;DHT22;460;48.734;9.152;2024-02-04T16:31:46;8.60;99.90
947;DHT22;460;48.734;9.152;2024-02-04T16:34:13;8.80;99.90
947;DHT22;460;48.734;9.152;2024-02-04T16:36:41;8.70;99.90
947;DHT22;460;48.734;9.152;2024-02-04T16:39:08;8.60;99.90
947;DHT22;460;48.734;9.152;2024-02-04T16:41:35;8.60;99.90
947;DHT22;460;48.734;9.152;2024-02-04T16:46:29;8.70;99.90
947;DHT22;460;48.734;9.152;2024-02-04T16:48:56;8.50;99.90
947;DHT22;460;48.734;9.152;2024-02-04T16:51:22;8.40;99.90
947;DHT22;460;48.734;9.152;2024-02-04T16:53:50;9.10;99.90
947;DHT22;460;48.734;9.152;2024-02-04T16:56:18;8.40;99.90
947;DHT22;460;48.734;9.152;2024-02-04T16:58:45;8.40;99.90
947;DHT22;460;48.734;9.152;2024-02-04T17:01:12;8.30;99.90
947;DHT22;460;48.734;9.152;2024-02-04T17:03:39;8.30;99.90
947;DHT22;460;48.734;9.152;2024-02-04T17:06:06;8.40;99.90
947;DHT22;460;48.734;9.152;2024-02-04T17:08:34;8.30;99.90
947;DHT22;460;48.734;9.152;2024-02-04T17:11:03;7.90;99.90
947;DHT22;460;48.734;9.152;2024-02-04T17:13:31;8.00;99.90
947;DHT22;460;48.734;9.152;2024-02-04T17:15:58;8.50;99.90
947;DHT22;460;48.734;9.152;2024-02-04T17:18:34;8.50;99.90
947;DHT22;460;48.734;9.152;2024-02-04T17:21:08;7.90;99.90
947;DHT22;460;48.734;9.152;2024-02-04T17:23:38;8.40;99.90
947;DHT22;460;48.734;9.152;2024-02-04T17:26:07;7.80;99.90
947;DHT22;460;48.734;9.152;2024-02-04T17:28:34;8.00;99.90
947;DHT22;460;48.734;9.152;2024-02-04T17:31:01;8.20;99.90
947;DHT22;460;48.734;9.152;2024-02-04T17:33:29;8.20;99.90
947;DHT22;460;48.734;9.152;2024-02-04T17:35:56;7.90;99.90
947;DHT22;460;48.734;9.152;2024-02-04T17:38:22;8.30;99.90
947;DHT22;460;48.734;9.152;2024-02-04T17:40:49;8.00;99.90
947;DHT22;460;48.734;9.152;2024-02-04T17:43:17;7.80;99.90
947;DHT22;460;48.734;9.152;2024-02-04T17:45:46;8.10;99.90
947;DHT22;460;48.734;9.152;2024-02-04T17:48:12;8.20;99.90
947;DHT22;460;48.734;9.152;2024-02-04T17:50:39;7.90;99.90
947;DHT22;460;48.734;9.152;2024-02-04T17:53:05;8.00;99.90
947;DHT22;460;48.734;9.152;2024-02-04T17:55:32;8.20;99.90
947;DHT22;460;48.734;9.152;2024-02-04T17:58:00;8.20;99.90
947;DHT22;460;48.734;9.152;2024-02-04T18:00:30;8.10;99.90
947;DHT22;460;48.734;9.152;2024-02-04T18:02:58;8.00;99.90
947;DHT22;460;48.734;9.152;2024-02-04T18:05:25;7.70;99.90
947;DHT22;460;48.734;9.152;2024-02-04T18:07:52;7.90;99.90
947;DHT22;460;48.734;9.152;2024-02-04T18:10:18;8.10;99.90
947;DHT22;460;48.734;9.152;2024-02-04T18:12:46;8.00;99.90
947;DHT22;460;48.734;9.152;2024-02-04T18:15:13;7.90;99.90